Time;durP1;ratioP1;P1;durP2;ratioP2;P2;SDS_P1;SDS_P2;PMS_P1;PMS_P2;Temp;Humidity;BMP_temperature;BMP_pressure;BME280_temperature;BME280_humidity;BME280_pressure;Samples;Min_cycle;Max_cycle;Signal;HPM_P1;HPM_P2
2022/07/07 00:01:23;;;;;;;9.75;4.68;;;20.70;99.90;;;21.09;75.10;101956.25;5052937;28;20052;-67
2022/07/07 00:03:54;;;;;;;6.28;4.05;;;20.70;99.90;;;21.01;74.62;101931.38;5053838;28;20561;-68
2022/07/07 00:06:23;;;;;;;10.23;4.47;;;20.80;99.90;;;21.15;74.33;101963.25;5053908;28;20417;-67
2022/07/07 00:08:54;;;;;;;8.05;4.32;;;20.80;99.90;;;20.96;74.71;101954.81;5054071;28;20514;-67
2022/07/07 00:11:24;;;;;;;7.88;4.35;;;20.60;99.90;;;20.88;75.00;101953.28;5053984;28;20509;-67
2022/07/07 00:13:54;;;;;;;10.02;4.38;;;20.60;99.90;;;20.74;74.69;101915.13;5054002;28;20116;-67
2022/07/07 00:16:23;;;;;;;9.77;4.13;;;20.60;99.90;;;20.96;74.08;101954.81;5052535;28;20052;-67
2022/07/07 00:18:53;;;;;;;5.18;3.95;;;20.60;99.90;;;20.92;73.95;101952.25;5052771;28;20083;-67
2022/07/07 00:21:21;;;;;;;6.07;4.05;;;20.50;99.90;;;20.81;73.47;101951.72;5053829;28;20102;-67
2022/07/07 00:23:50;;;;;;;5.43;4.03;;;20.50;99.90;;;20.91;73.48;101946.00;5052687;28;20037;-67
2022/07/07 00:26:18;;;;;;;6.60;4.47;;;20.50;99.90;;;20.96;72.90;101954.81;5069074;28;20494;-67
2022/07/07 00:28:47;;;;;;;5.35;3.85;;;20.60;99.90;;;21.08;72.65;101953.63;5053665;28;20059;-67
2022/07/07 00:31:16;;;;;;;5.22;3.88;;;20.70;99.90;;;20.98;73.51;101952.09;5053589;28;20091;-67
2022/07/07 00:33:45;;;;;;;10.43;4.72;;;20.60;99.90;;;20.95;73.53;101949.47;5053419;28;20140;-67
2022/07/07 00:36:15;;;;;;;6.25;3.95;;;20.60;99.90;;;20.65;74.14;101937.81;5053174;28;20056;-67
2022/07/07 00:38:43;;;;;;;7.13;4.43;;;20.40;99.90;;;20.39;74.19;101882.09;5053525;28;20082;-67
2022/07/07 00:41:11;;;;;;;7.45;4.15;;;20.30;99.90;;;20.82;74.20;101924.75;5052189;28;20132;-68
2022/07/07 00:43:43;;;;;;;5.47;4.05;;;20.30;99.90;;;20.55;74.05;101896.88;5052154;28;20059;-67
2022/07/07 00:46:12;;;;;;;7.22;4.47;;;20.40;99.90;;;20.95;73.89;101927.94;5053090;28;20049;-68
2022/07/07 00:48:42;;;;;;;6.88;4.65;;;20.50;99.90;;;20.74;74.27;101917.81;5053502;28;20410;-67
2022/07/07 00:51:14;;;;;;;7.78;4.43;;;20.30;99.90;;;20.58;74.79;101931.72;5053101;28;20052;-67
2022/07/07 00:53:43;;;;;;;10.93;4.47;;;20.20;99.90;;;20.30;75.54;101911.94;5053071;28;20407;-68
2022/07/07 00:56:11;;;;;;;7.72;4.57;;;20.00;99.90;;;19.96;77.95;101929.84;5053060;28;20076;-67
2022/07/07 00:58:40;;;;;;;4.57;3.90;;;19.70;99.90;;;19.88;78.59;101939.88;5052898;28;20033;-68
2022/07/07 01:01:08;;;;;;;6.65;4.30;;;19.50;99.90;;;19.90;78.38;101921.94;5052872;28;20049;-67
2022/07/07 01:03:37;;;;;;;7.75;4.70;;;19.60;99.90;;;19.70;79.05;101900.94;5052908;28;20090;-67
2022/07/07 01:06:06;;;;;;;9.70;5.25;;;19.60;99.90;;;19.67;80.13;101897.47;5052897;28;20096;-68
2022/07/07 01:08:36;;;;;;;5.35;4.07;;;19.50;99.90;;;19.84;80.40;101919.41;5053099;28;20041;-68
2022/07/07 01:11:04;;;;;;;5.15;4.32;;;19.50;99.90;;;19.90;80.62;101929.13;5052850;28;20087;-67
2022/07/07 01:13:35;;;;;;;5.38;4.10;;;19.50;99.90;;;19.82;80.38;101913.22;5053081;28;20077;-67
2022/07/07 01:16:04;;;;;;;4.90;4.20;;;19.50;99.90;;;19.82;80.66;101941.88;5052854;28;20406;-68
2022/07/07 01:18:33;;;;;;;5.60;4.15;;;19.40;99.90;;;19.86;80.14;101925.63;5052686;28;20438;-68
2022/07/07 01:21:05;;;;;;;4.65;4.25;;;19.50;99.90;;;19.98;80.39;101927.09;5052706;28;20052;-67
2022/07/07 01:23:35;;;;;;;8.82;4.88;;;19.50;99.90;;;19.91;80.52;101926.41;5053069;28;20056;-67
2022/07/07 01:26:03;;;;;;;8.00;4.63;;;19.50;99.90;;;19.76;80.39;101916.06;5052732;28;20047;-67
2022/07/07 01:28:33;;;;;;;8.93;3.92;;;19.50;99.90;;;19.91;80.45;101923.72;5052699;28;20052;-67
2022/07/07 01:31:01;;;;;;;5.90;4.60;;;19.50;99.90;;;19.94;80.24;101912.88;5051692;28;20098;-67
2022/07/07 01:33:30;;;;;;;6.78;4.22;;;19.60;99.90;;;19.80;79.57;101901.63;5052635;28;20037;-67
2022/07/07 01:35:58;;;;;;;6.93;4.07;;;19.50;99.90;;;19.64;81.15;101906.50;5053609;28;20552;-67
2022/07/07 01:38:27;;;;;;;6.13;4.10;;;19.30;99.90;;;19.36;81.35;101864.25;5056548;28;20037;-67
2022/07/07 01:40:56;;;;;;;5.68;4.50;;;19.30;99.90;;;19.64;81.32;101914.56;5056467;28;20076;-67
2022/07/07 01:43:25;;;;;;;6.83;4.10;;;19.20;99.90;;;18.99;81.09;101860.69;5057065;28;20068;-68
2022/07/07 01:45:54;;;;;;;6.20;4.15;;;19.20;99.90;;;19.67;81.46;101911.78;5056434;28;20122;-67
2022/07/07 01:48:23;;;;;;;6.35;3.75;;;19.30;99.90;;;19.59;81.62;101907.50;5056222;28;20057;-68
2022/07/07 01:50:51;;;;;;;9.63;3.88;;;19.20;99.90;;;19.28;81.90;101882.34;5056341;28;20044;-68
2022/07/07 01:53:20;;;;;;;4.32;3.92;;;19.10;99.90;;;19.42;81.71;101878.41;5055046;28;20072;-68
2022/07/07 01:55:48;;;;;;;6.72;4.55;;;19.20;99.90;;;19.69;81.41;101917.09;5056287;28;20037;-68
2022/07/07 01:58:18;;;;;;;8.95;3.90;;;19.30;99.90;;;19.34;81.34;101832.09;5056571;28;20033;-68
2022/07/07 02:00:46;;;;;;;7.37;4.13;;;19.30;99.90;;;19.68;81.84;101910.00;5056240;28;20061;-68
2022/07/07 02:03:15;;;;;;;5.10;4.32;;;19.30;99.90;;;19.73;82.91;101913.44;5056142;28;20079;-67
2022/07/07 02:05:44;;;;;;;10.30;4.45;;;19.30;99.90;;;19.61;83.01;101863.59;5056109;28;20037;-68
2022/07/07 02:08:12;;;;;;;5.60;4.30;;;19.30;99.90;;;19.67;83.29;101862.56;5056111;28;20040;-68
2022/07/07 02:13:28;;;;;;;5.15;3.78;;;19.40;99.90;;;19.56;83.32;101896.88;5055976;28;20501;-68
2022/07/07 02:15:57;;;;;;;11.82;4.45;;;19.20;99.90;;;19.61;83.79;101877.03;5055961;28;20124;-68
2022/07/07 02:18:26;;;;;;;8.85;4.22;;;19.30;99.90;;;19.57;83.20;101891.44;5056231;28;20048;-68
2022/07/07 02:20:54;;;;;;;9.27;4.13;;;19.20;99.90;;;19.60;83.50;101888.72;5055410;28;20529;-65
2022/07/07 02:23:23;;;;;;;8.65;3.90;;;19.20;99.90;;;19.55;82.32;101900.50;5054789;28;20478;-65
2022/07/07 02:25:51;;;;;;;6.22;3.80;;;19.20;99.90;;;19.44;83.11;101902.53;5056031;28;20045;-64
2022/07/07 02:28:20;;;;;;;7.38;4.22;;;19.10;99.90;;;19.57;82.97;101898.63;5055722;28;20124;-65
2022/07/07 02:30:50;;;;;;;9.32;4.53;;;19.20;99.90;;;19.48;83.54;101896.16;5054675;28;20045;-64
2022/07/07 02:33:19;;;;;;;6.03;4.00;;;19.10;99.90;;;19.32;83.51;101860.78;5055680;28;20059;-64
2022/07/07 02:35:48;;;;;;;6.40;4.25;;;19.10;99.90;;;19.39;83.60;101893.72;5055529;28;20040;-64
2022/07/07 02:38:16;;;;;;;8.63;4.82;;;19.00;99.90;;;19.51;83.79;101883.53;5055747;28;20040;-64
2022/07/07 02:40:45;;;;;;;9.52;4.35;;;19.10;99.90;;;19.37;83.71;101883.03;5055729;28;20037;-64
2022/07/07 02:43:13;;;;;;;10.75;4.60;;;19.00;99.90;;;19.36;83.88;101889.28;5055690;28;20156;-64
2022/07/07 02:45:43;;;;;;;8.82;4.40;;;19.00;99.90;;;19.47;83.64;101899.78;5055408;28;20079;-64
2022/07/07 02:48:15;;;;;;;8.93;3.88;;;19.10;99.90;;;19.15;85.32;101907.66;5054574;28;20107;-64
2022/07/07 02:50:44;;;;;;;13.35;4.40;;;18.90;99.90;;;18.96;87.67;101912.56;5055353;28;20098;-64
2022/07/07 02:53:13;;;;;;;8.85;3.75;;;18.60;99.90;;;18.51;89.38;101911.75;5055240;28;20139;-64
2022/07/07 02:55:42;;;;;;;12.73;4.72;;;18.30;99.90;;;18.91;89.33;101914.50;5055217;28;20388;-64
2022/07/07 02:58:13;;;;;;;8.73;4.45;;;18.50;99.90;;;18.73;89.15;101906.81;5055055;28;20072;-64
2022/07/07 03:00:41;;;;;;;;;;;18.40;99.90;;;18.99;89.01;101908.94;5055548;28;20075;-64
2022/07/07 03:03:10;;;;;;;10.23;4.18;;;18.60;99.90;;;18.93;88.72;101910.84;5055026;28;19952;-64
2022/07/07 03:05:40;;;;;;;13.77;4.72;;;18.60;99.90;;;18.71;89.43;101914.91;5055001;28;20103;-64
2022/07/07 03:08:08;;;;;;;7.55;4.00;;;18.50;99.90;;;18.56;90.74;101917.88;5055297;28;20055;-64
2022/07/07 03:10:37;;;;;;;13.52;4.45;;;18.20;99.90;;;18.56;90.56;101922.38;5055262;28;20120;-64
2022/07/07 03:13:05;;;;;;;13.75;4.05;;;18.20;99.90;;;18.66;90.78;101922.16;5055453;28;20041;-64
2022/07/07 03:15:34;;;;;;;12.75;4.80;;;18.30;99.90;;;18.55;91.48;101921.50;5054831;28;20041;-64
2022/07/07 03:18:03;;;;;;;15.30;5.05;;;18.20;99.90;;;18.37;92.47;101919.13;5054950;28;20053;-64
2022/07/07 03:20:31;;;;;;;11.00;4.45;;;18.00;99.90;;;18.38;93.15;101920.03;5053743;28;20048;-64
2022/07/07 03:23:01;;;;;;;12.48;4.88;;;18.00;99.90;;;18.37;93.43;101915.59;5054688;28;20041;-64
2022/07/07 03:25:29;;;;;;;15.85;4.80;;;18.00;99.90;;;18.27;93.94;101920.25;5054982;28;20076;-64
2022/07/07 03:27:58;;;;;;;13.95;4.85;;;17.90;99.90;;;18.27;94.06;101920.25;5054585;28;20044;-64
2022/07/07 03:30:26;;;;;;;11.98;4.22;;;17.80;99.90;;;18.32;94.08;101925.50;5053544;28;20087;-64
2022/07/07 03:32:54;;;;;;;10.77;3.90;;;17.90;99.90;;;18.32;93.73;101923.72;5053441;28;20510;-65
2022/07/07 03:35:23;;;;;;;11.77;4.22;;;17.90;99.90;;;18.26;93.47;101912.22;5054720;28;20128;-64
2022/07/07 03:37:51;;;;;;;12.73;4.07;;;17.90;99.90;;;18.26;93.41;101915.78;5054367;28;20049;-64
2022/07/07 03:40:21;;;;;;;14.13;4.25;;;17.90;99.90;;;18.37;93.46;101924.50;5054930;28;20087;-64
2022/07/07 03:42:49;;;;;;;11.03;5.00;;;18.00;99.90;;;18.26;93.76;101923.81;5054577;28;20041;-64
2022/07/07 03:45:17;;;;;;;14.85;5.05;;;17.90;99.90;;;18.42;93.48;101922.66;5054841;28;20287;-64
2022/07/07 03:47:46;;;;;;;13.90;4.70;;;17.90;99.90;;;18.59;93.00;101923.19;5054295;28;20449;-64
2022/07/07 03:50:14;;;;;;;13.18;4.97;;;18.10;99.90;;;18.54;92.48;101926.88;5086727;28;20435;-64
2022/07/07 03:52:43;;;;;;;16.38;4.50;;;18.20;99.90;;;18.40;92.97;101924.44;5054092;28;20048;-64
2022/07/07 03:55:11;;;;;;;15.32;5.20;;;18.00;99.90;;;18.57;92.72;101932.19;5054347;28;20132;-63
2022/07/07 03:57:41;;;;;;;14.48;4.75;;;18.10;99.90;;;18.52;93.23;101939.44;5053961;28;20490;-64
2022/07/07 04:00:11;;;;;;;13.70;4.57;;;18.10;99.90;;;18.47;93.15;101931.47;5054141;28;20049;-63
2022/07/07 04:02:40;;;;;;;18.27;4.68;;;18.10;99.90;;;18.46;93.01;101935.09;5054298;28;20041;-64
2022/07/07 04:05:09;;;;;;;18.30;5.82;;;18.10;99.90;;;18.48;93.02;101940.41;5052830;28;20045;-66
2022/07/07 04:07:37;;;;;;;13.25;4.53;;;18.10;99.90;;;18.29;93.09;101938.97;5053792;28;20612;-68
2022/07/07 04:10:07;;;;;;;15.70;4.93;;;18.00;99.90;;;18.39;92.78;101944.09;5053803;28;20068;-63
2022/07/07 04:12:35;;;;;;;15.10;4.45;;;18.00;99.90;;;18.44;91.72;101950.31;5052772;28;20041;-63
2022/07/07 04:15:06;;;;;;;13.88;4.40;;;18.00;99.90;;;18.37;90.56;101939.72;5053955;28;20410;-64
2022/07/07 04:17:34;;;;;;;9.27;3.95;;;18.00;99.90;;;18.51;88.74;101943.91;5053963;28;20410;-63
2022/07/07 04:20:04;;;;;;;11.52;3.70;;;18.10;99.90;;;18.64;87.31;101952.59;5053772;28;20045;-63
2022/07/07 04:22:33;;;;;;;18.83;4.55;;;18.20;99.90;;;18.60;85.96;101954.44;5053900;28;20048;-64
2022/07/07 04:25:01;;;;;;;17.67;4.20;;;18.30;99.90;;;18.49;84.52;101951.09;5054058;28;20075;-64
2022/07/07 04:27:29;;;;;;;17.77;5.03;;;18.20;99.90;;;18.48;84.17;101967.22;5053506;28;20053;-65
2022/07/07 04:29:58;;;;;;;19.95;5.30;;;18.10;99.90;;;18.51;83.76;101964.44;5053663;28;20064;-64
2022/07/07 04:32:27;;;;;;;18.48;4.20;;;18.20;99.90;;;18.48;83.52;101965.41;5052331;28;20095;-65
2022/07/07 04:34:56;;;;;;;17.83;4.63;;;18.20;99.90;;;18.66;82.79;101967.72;5053370;28;20556;-64
2022/07/07 04:37:24;;;;;;;15.68;4.70;;;18.30;99.90;;;18.61;82.16;101971.41;5052236;28;20049;-64
2022/07/07 04:39:53;;;;;;;16.98;5.03;;;18.30;99.90;;;18.49;82.62;101975.22;5053438;28;20043;-64
2022/07/07 04:42:21;;;;;;;19.23;4.55;;;18.20;99.90;;;18.69;82.03;101966.78;5053809;28;20080;-64
2022/07/07 04:44:49;;;;;;;15.48;4.57;;;18.40;99.90;;;18.63;81.16;101981.19;5053200;28;20409;-64
2022/07/07 04:47:18;;;;;;;15.30;4.55;;;18.30;99.90;;;18.72;80.39;101991.72;5053389;28;20087;-64
2022/07/07 04:49:47;;;;;;;14.32;4.57;;;18.40;99.90;;;18.40;79.75;101994.13;5053024;28;20099;-65
2022/07/07 04:52:16;;;;;;;20.00;5.57;;;18.20;99.90;;;18.62;80.02;101995.50;5053570;28;20040;-65
2022/07/07 04:54:44;;;;;;;16.33;4.60;;;18.30;99.90;;;18.53;79.57;101963.53;5053260;28;20055;-65
2022/07/07 04:57:13;;;;;;;14.50;4.55;;;18.40;99.90;;;18.50;80.53;102003.78;5052108;28;20071;-65
2022/07/07 04:59:41;;;;;;;21.52;5.35;;;18.30;99.90;;;18.75;80.74;102005.09;5053161;28;20044;-65
2022/07/07 05:02:09;;;;;;;16.02;4.90;;;18.40;99.90;;;18.84;80.35;102006.69;5052994;28;20064;-65
2022/07/07 05:04:38;;;;;;;18.38;5.10;;;18.50;99.90;;;18.90;79.83;102018.19;5053455;28;20136;-64
2022/07/07 05:07:09;;;;;;;18.83;5.28;;;18.60;99.90;;;18.83;79.99;102021.00;5052950;28;20049;-65
2022/07/07 05:09:37;;;;;;;16.10;4.70;;;18.50;99.90;;;19.04;79.88;102031.31;5052604;28;20454;-64
2022/07/07 05:12:07;;;;;;;19.23;5.72;;;18.70;99.90;;;18.98;79.06;102022.50;5052980;28;20041;-64
2022/07/07 05:14:35;;;;;;;17.92;4.85;;;18.70;99.90;;;18.73;79.60;102027.47;5052852;28;20079;-64
2022/07/07 05:17:04;;;;;;;14.80;4.65;;;18.50;99.90;;;18.86;79.23;102013.78;5053054;28;20400;-64
2022/07/07 05:19:32;;;;;;;13.43;4.60;;;18.50;99.90;;;18.62;79.93;102022.28;5052722;28;20044;-64
2022/07/07 05:22:02;;;;;;;18.48;4.63;;;18.40;99.90;;;18.40;80.30;102034.31;5053342;28;20033;-64
2022/07/07 05:24:32;;;;;;;15.98;5.13;;;18.20;99.90;;;18.12;80.92;102030.31;5053343;28;20124;-65
2022/07/07 05:27:00;;;;;;;22.20;5.10;;;17.90;99.90;;;18.36;80.88;102029.03;5052778;28;20075;-64
2022/07/07 05:29:28;;;;;;;23.73;5.05;;;17.90;99.90;;;18.46;80.09;102036.91;5053005;28;20068;-64
2022/07/07 05:31:57;;;;;;;16.40;4.75;;;18.10;99.90;;;18.57;80.03;102055.47;5052862;28;20083;-64
2022/07/07 05:34:25;;;;;;;20.02;5.15;;;18.20;99.90;;;18.43;79.52;102020.88;5053203;28;20048;-65
2022/07/07 05:36:54;;;;;;;18.95;5.35;;;18.20;99.90;;;18.53;80.14;102029.63;5052632;28;20049;-64
2022/07/07 05:39:24;;;;;;;19.33;5.43;;;18.30;99.90;;;18.54;80.30;102048.34;5052498;28;20047;-64
2022/07/07 05:41:53;;;;;;;21.70;5.18;;;18.20;99.90;;;18.31;80.85;102042.47;5052620;28;20052;-64
2022/07/07 05:44:21;;;;;;;18.70;5.40;;;18.00;99.90;;;18.50;81.11;102049.34;5051478;28;20486;-64
2022/07/07 05:46:50;;;;;;;22.40;5.35;;;18.10;99.90;;;18.18;81.20;102035.56;5052201;28;20080;-65
2022/07/07 05:49:18;;;;;;;20.13;5.60;;;18.00;99.90;;;18.31;81.02;102057.69;5052805;28;20501;-64
2022/07/07 05:51:46;;;;;;;19.67;5.30;;;18.00;99.90;;;18.64;80.44;102075.91;5052756;28;20399;-64
2022/07/07 05:54:15;;;;;;;15.23;5.60;;;18.20;99.90;;;18.74;80.10;102059.59;5052352;28;20508;-64
2022/07/07 05:56:43;;;;;;;16.52;5.05;;;18.40;99.90;;;18.59;79.69;102073.28;5052383;28;20128;-64
2022/07/07 05:59:13;;;;;;;17.40;4.93;;;18.30;99.90;;;18.70;79.06;102081.13;5052306;28;20479;-65
2022/07/07 06:01:41;;;;;;;18.30;4.70;;;18.40;99.90;;;18.59;78.09;102085.81;5052446;28;20509;-65
2022/07/07 06:04:10;;;;;;;17.40;5.68;;;18.40;99.90;;;18.01;80.10;102096.56;5052376;28;20142;-64
2022/07/07 06:06:38;;;;;;;11.95;4.95;;;17.90;99.90;;;18.28;81.01;102100.59;5052855;28;20106;-64
2022/07/07 06:09:06;;;;;;;11.75;3.90;;;18.00;99.90;;;17.89;82.48;102104.78;5052541;28;20041;-64
2022/07/07 06:11:35;;;;;;;11.57;4.30;;;17.70;99.90;;;17.77;83.98;102102.25;5052594;28;20131;-64
2022/07/07 06:14:03;;;;;;;11.57;4.43;;;17.50;99.90;;;17.80;84.61;102103.13;5052229;28;20131;-64
2022/07/07 06:16:42;;;;;;;12.68;4.95;;;17.50;99.90;;;18.00;84.92;102106.38;5052273;28;20482;-64
2022/07/07 06:19:12;;;;;;;18.27;5.20;;;17.60;99.90;;;18.18;84.12;102102.53;5052296;28;20041;-64
2022/07/07 06:21:42;;;;;;;12.32;5.00;;;17.80;99.90;;;18.22;83.59;102090.88;5052520;28;20045;-63
2022/07/07 06:24:11;;;;;;;15.00;4.78;;;18.00;99.90;;;18.42;83.14;102122.69;5055660;28;20098;-64
2022/07/07 06:26:39;;;;;;;12.38;4.43;;;18.10;99.90;;;18.03;85.49;102119.75;5055924;28;20063;-64
2022/07/07 06:29:08;;;;;;;14.43;4.40;;;17.90;99.90;;;18.06;86.39;102115.25;5054670;28;20044;-64
2022/07/07 06:31:38;;;;;;;13.07;4.45;;;17.80;99.90;;;18.03;87.43;102126.88;5055661;28;20045;-64
2022/07/07 06:34:06;;;;;;;16.27;4.72;;;17.80;99.90;;;18.11;87.54;102124.97;5055893;28;20041;-64
2022/07/07 06:36:34;;;;;;;18.48;5.18;;;17.80;99.90;;;18.34;87.38;102129.97;5054515;28;20040;-64
2022/07/07 06:39:03;;;;;;;17.48;5.03;;;18.00;99.90;;;18.20;87.41;102119.47;5055506;28;20106;-64
2022/07/07 06:41:36;;;;;;;12.35;4.40;;;17.90;99.90;;;18.07;85.49;102098.25;5055387;28;20095;-65
2022/07/07 06:44:06;;;;;;;14.63;5.00;;;17.90;99.90;;;18.23;85.41;102135.53;5055378;28;20053;-65
2022/07/07 06:46:34;;;;;;;13.82;4.18;;;17.90;99.90;;;18.57;84.46;102128.72;5055420;28;20122;-65
2022/07/07 06:49:04;;;;;;;17.02;5.15;;;18.20;99.90;;;18.53;83.48;102116.28;5055617;28;20057;-65
2022/07/07 06:51:33;;;;;;;13.30;4.60;;;18.30;99.90;;;18.93;82.52;102138.78;5055568;28;20037;-66
2022/07/07 06:54:02;;;;;;;14.55;5.38;;;18.60;99.90;;;18.94;81.47;102137.00;5055250;28;20457;-66
2022/07/07 06:56:30;;;;;;;11.70;4.47;;;18.60;99.90;;;18.97;81.00;102146.78;5054145;28;20521;-65
2022/07/07 06:58:58;;;;;;;15.38;4.47;;;18.70;99.90;;;18.91;79.53;102154.00;5055203;28;20072;-65
2022/07/07 07:01:27;;;;;;;13.90;4.82;;;18.60;99.90;;;18.84;78.87;102149.69;5055341;28;20067;-66
2022/07/07 07:03:55;;;;;;;16.48;4.97;;;18.60;99.90;;;19.12;78.59;102151.84;5054962;28;20041;-66
2022/07/07 07:06:28;;;;;;;11.95;4.47;;;18.70;99.90;;;19.09;78.59;102149.22;5055341;28;20064;-66
2022/07/07 07:08:56;;;;;;;16.30;4.47;;;18.70;99.90;;;18.87;79.09;102141.56;5055652;28;20133;-63
2022/07/07 07:11:25;;;;;;;14.55;4.80;;;18.60;99.90;;;19.07;77.95;102159.97;5054963;28;20127;-66
2022/07/07 07:13:53;;;;;;;18.83;4.78;;;18.70;99.90;;;19.33;77.18;102151.47;5054876;28;20049;-66
2022/07/07 07:16:21;;;;;;;14.73;5.03;;;18.90;99.90;;;19.44;75.90;102150.34;5054879;28;20043;-64
2022/07/07 07:18:53;;;;;;;17.95;5.57;;;19.10;99.90;;;19.30;76.27;102157.75;5054799;28;20094;-63
2022/07/07 07:21:21;;;;;;;13.55;4.88;;;19.00;99.90;;;18.76;80.21;102156.97;5055092;28;20037;-63
2022/07/07 07:23:52;;;;;;;14.02;4.50;;;18.60;99.90;;;17.78;85.43;102104.94;5054972;28;20049;-63
2022/07/07 07:26:20;;;;;;;17.58;4.80;;;18.00;99.90;;;18.09;87.18;102177.69;5054776;28;20107;-63
2022/07/07 07:28:49;;;;;;;13.90;4.80;;;17.90;99.90;;;17.94;88.04;102173.41;5053709;28;20045;-65
2022/07/07 07:31:17;;;;;;;11.07;3.95;;;17.60;99.90;;;17.81;88.35;102186.97;5054825;28;20053;-64
2022/07/07 07:33:47;;;;;;;10.10;4.00;;;17.50;99.90;;;17.98;89.10;102185.00;5054661;28;20067;-64
2022/07/07 07:36:15;;;;;;;5.85;3.17;;;17.60;99.90;;;18.13;87.40;102179.41;5055059;28;20049;-64
2022/07/07 07:38:44;;;;;;;5.90;3.35;;;17.70;99.90;;;18.26;86.03;102194.38;5054427;28;20045;-64
2022/07/07 07:41:14;;;;;;;5.57;3.22;;;17.90;99.90;;;18.44;85.52;102193.25;5053347;28;20441;-65
2022/07/07 07:43:42;;;;;;;12.60;4.13;;;18.10;99.90;;;18.56;85.09;102199.28;5054577;28;20048;-64
2022/07/07 07:46:11;;;;;;;9.80;3.72;;;18.30;99.90;;;18.48;85.48;102198.56;5054230;28;20080;-64
2022/07/07 07:48:39;;;;;;;12.10;4.35;;;18.30;99.90;;;18.43;85.08;102196.84;5053896;28;20056;-63
2022/07/07 07:51:08;;;;;;;12.27;4.78;;;18.20;99.90;;;18.56;84.05;102203.81;5054171;28;20041;-63
2022/07/07 07:53:36;;;;;;;13.90;4.30;;;18.20;99.90;;;17.93;84.48;102090.44;5054429;28;20509;-64
2022/07/07 07:56:05;;;;;;;14.10;4.50;;;18.30;99.90;;;18.85;83.94;102207.75;5053010;28;20041;-63
2022/07/07 07:58:35;;;;;;;12.48;4.55;;;18.50;99.90;;;18.90;83.07;102200.53;5053051;28;20045;-63
2022/07/07 08:01:04;;;;;;;14.77;4.70;;;18.50;99.90;;;18.60;83.38;102210.88;5054295;28;20135;-63
2022/07/07 08:03:33;;;;;;;12.40;4.55;;;18.30;99.90;;;18.77;83.33;102220.44;5054010;28;20579;-63
2022/07/07 08:06:02;;;;;;;14.77;4.53;;;18.40;99.90;;;18.82;83.12;102223.91;5054470;28;20072;-64
2022/07/07 08:08:30;;;;;;;10.15;4.15;;;18.40;99.90;;;18.85;83.65;102228.34;5054128;28;20045;-63
2022/07/07 08:10:59;;;;;;;8.70;3.70;;;18.60;99.90;;;18.32;85.75;102215.75;5054063;28;20053;-64
2022/07/07 08:13:27;;;;;;;9.05;4.10;;;18.10;99.90;;;18.56;84.89;102204.66;5053966;28;20487;-64
2022/07/07 08:15:57;;;;;;;8.55;3.80;;;18.30;99.90;;;18.50;85.29;102215.50;5054007;28;20513;-63
2022/07/07 08:18:27;;;;;;;11.05;3.97;;;18.20;99.90;;;18.69;84.40;102219.66;5053722;28;20102;-63
2022/07/07 08:20:55;;;;;;;20.98;4.72;;;18.30;99.90;;;18.53;83.42;102223.47;5053460;28;20048;-63
2022/07/07 08:23:24;;;;;;;13.85;3.92;;;18.30;99.90;;;18.64;83.08;102218.81;5053586;28;20045;-64
2022/07/07 08:25:53;;;;;;;13.30;4.30;;;18.30;99.90;;;18.85;83.17;102220.28;5053512;28;20033;-63
2022/07/07 08:28:21;;;;;;;15.50;4.60;;;18.50;99.90;;;18.96;81.84;102237.09;5053788;28;20450;-64
2022/07/07 08:30:49;;;;;;;13.80;4.07;;;18.60;99.90;;;19.07;81.96;102236.88;5053517;28;20431;-64
2022/07/07 08:33:19;;;;;;;14.45;4.13;;;18.70;99.90;;;18.93;81.19;102247.84;5053410;28;20086;-64
2022/07/07 08:35:47;;;;;;;13.13;4.33;;;18.70;99.90;;;19.09;81.48;102243.09;5053408;28;20557;-64
2022/07/07 08:38:16;;;;;;;9.90;4.28;;;18.80;99.90;;;18.97;81.72;102248.72;5053312;28;20103;-64
2022/07/07 08:40:44;;;;;;;11.73;4.05;;;18.70;99.90;;;18.87;82.54;102247.97;5052227;28;20045;-65
2022/07/07 08:43:14;;;;;;;15.02;4.20;;;18.60;99.90;;;18.95;82.78;102251.38;5052565;28;20049;-64
2022/07/07 08:45:42;;;;;;;14.02;4.20;;;18.60;99.90;;;19.05;82.80;102249.47;5052492;28;20045;-64
2022/07/07 08:48:10;;;;;;;13.30;4.20;;;18.80;99.90;;;19.12;83.03;102254.69;5053017;28;20049;-64
2022/07/07 08:50:40;;;;;;;12.35;4.20;;;18.80;99.90;;;18.97;83.71;102251.38;5053353;28;20120;-63
2022/07/07 08:53:09;;;;;;;11.53;4.43;;;18.70;99.90;;;19.03;82.99;102246.78;5052120;28;20077;-63
2022/07/07 08:55:41;;;;;;;19.55;4.28;;;18.80;99.90;;;18.75;83.79;102254.41;5053610;28;20045;-63
2022/07/07 08:58:10;;;;;;;12.85;3.97;;;18.50;99.90;;;18.87;83.11;102259.56;5053365;28;20045;-63
2022/07/07 09:00:39;;;;;;;16.55;4.03;;;18.60;99.90;;;19.10;82.77;102263.66;5052968;28;20103;-63
2022/07/07 09:03:07;;;;;;;17.23;4.47;;;18.70;99.90;;;18.90;83.01;102255.94;5053039;28;20072;-63
2022/07/07 09:05:38;;;;;;;13.38;5.25;;;18.70;99.90;;;19.16;82.75;102276.97;5053071;28;20124;-63
2022/07/07 09:08:18;;;;;;;;;;;18.80;99.90;;;19.04;82.32;102279.88;5053799;28;20056;-64
2022/07/07 09:10:48;;;;;;;15.35;4.30;;;18.80;99.90;;;19.00;81.87;102244.16;5053044;28;20019;-65
2022/07/07 09:13:28;;;;;;;16.70;4.53;;;18.90;99.90;;;19.26;80.16;102278.59;5053520;28;20044;-63
2022/07/07 09:16:02;;;;;;;13.52;4.95;;;19.10;99.90;;;19.04;80.79;102287.91;5053238;28;20060;-65
2022/07/07 09:18:34;;;;;;;10.30;4.07;;;18.80;99.90;;;19.02;79.07;102290.63;5052880;28;20049;-64
2022/07/07 09:21:04;;;;;;;12.30;4.43;;;18.80;99.90;;;19.26;78.55;102300.06;5052770;28;20556;-63
2022/07/07 09:23:34;;;;;;;16.23;5.25;;;18.90;99.90;;;19.32;77.71;102297.25;5051916;28;20085;-64
2022/07/07 09:26:03;;;;;;;11.60;4.40;;;19.00;99.90;;;19.48;78.26;102309.53;5053070;28;20049;-64
2022/07/07 09:28:31;;;;;;;18.60;5.30;;;19.10;99.90;;;19.71;78.06;102301.94;5052744;28;20064;-63
2022/07/07 09:31:02;;;;;;;15.63;4.88;;;19.40;99.90;;;19.77;77.91;102315.25;5053090;28;20049;-64
2022/07/07 09:33:30;;;;;;;20.48;5.00;;;19.50;99.90;;;19.79;76.32;102317.00;5053027;28;20120;-64
2022/07/07 09:38:47;;;;;;;15.98;4.85;;;19.20;99.90;;;19.13;78.13;102319.94;5052755;28;20136;-65
2022/07/07 09:41:17;;;;;;;19.90;5.47;;;18.90;99.90;;;19.36;77.49;102324.06;5052941;28;20072;-65
2022/07/07 09:43:47;;;;;;;17.35;5.55;;;19.00;99.90;;;19.09;78.51;102327.16;5051755;28;20045;-64
2022/07/07 09:46:19;;;;;;;16.77;4.57;;;18.90;99.90;;;19.36;77.86;102328.53;5052609;28;20068;-65
2022/07/07 09:48:50;;;;;;;18.65;5.60;;;19.00;99.90;;;19.31;77.50;102344.69;5052831;28;20053;-64
2022/07/07 09:51:20;;;;;;;;;;;19.00;99.90;;;19.44;77.37;102346.28;5053242;28;20086;-64
2022/07/07 09:54:04;;;;;;;;;;;19.10;99.90;;;19.63;77.17;102346.81;5053354;28;19964;-64
2022/07/07 09:56:36;;;;;;;30.95;4.55;;;19.30;99.90;;;19.65;75.01;102355.75;5053646;28;20310;-64
2022/07/07 09:59:07;;;;;;;11.07;4.22;;;19.40;99.90;;;19.74;75.07;102366.34;5056718;28;20044;-64
2022/07/07 10:01:39;;;;;;;12.52;4.43;;;19.40;99.90;;;19.70;75.07;102365.47;5056618;28;20184;-65
2022/07/07 10:04:09;;;;;;;15.60;5.03;;;19.50;99.90;;;19.82;76.23;102379.63;5056525;28;20053;-65
2022/07/07 10:06:40;;;;;;;12.48;4.63;;;19.50;99.90;;;19.78;77.41;102365.38;5056495;28;20036;-63
2022/07/07 10:09:12;;;;;;;15.95;4.90;;;19.60;99.90;;;19.72;77.35;102373.53;5056378;28;20061;-65
2022/07/07 10:11:43;;;;;;;15.40;4.97;;;19.50;99.90;;;19.42;78.99;102379.41;5056381;28;20425;-62
2022/07/07 10:14:15;;;;;;;17.58;4.82;;;19.10;99.90;;;19.61;79.22;102383.56;5056090;28;20556;-65
2022/07/07 10:16:45;;;;;;;11.27;4.10;;;19.30;99.90;;;18.89;79.26;102308.69;5056255;28;20044;-65
2022/07/07 10:19:18;;;;;;;15.32;4.63;;;19.10;99.90;;;19.66;78.70;102382.59;5055951;28;20052;-65
2022/07/07 10:21:48;;;;;;;11.48;4.43;;;19.30;99.90;;;19.63;78.00;102392.47;5056157;28;20110;-64